Aérodrome :
LOGIN :

S'inscrire | Disclaimer

   EN    FR    IT 

 










Légende :    VFR   VFR Marginal   IFR   IFR Intensif   IFR Très Intensif
Visi : 
Plafond : 
>= 8 km
>= 3000ft
5 à 8 km
1000 à 3000 ft
1500m à 5 km
500 à 1000 ft
800 à 1500m
200 à 500 ft
< 800m
< 200 ft
Symboles :   Orages  Brouillard  Fortes neiges  Fortes précipitations  Vent > 20 kt
SIGMETs :   Divers  Orages  Givrage  Turbulence  Onde Orograph.  Cendres Volcan.







- Altitude de l'aérodrome : 74 ft
- Code IATA : EIN


EHEH - Eindhoven

DERNIER METAR :
  • 201125Z AUTO 06007KT 360V130 9999 NCD 21/08 Q1022 BLU 05006KT CAVOK

METARs EXPIRÉS :
  • 201055Z AUTO 06006KT 340V120 9999 NCD 21/08 Q1022 BLU 05006KT CAVOK
  • 201025Z AUTO 05007KT 010V120 9999 NCD 21/08 Q1022 BLU 05005KT 9999 FEW045 BECMG CAVOK
  • 200955Z AUTO 06006KT 010V090 9999 NCD 19/08 Q1023 BLU 05005KT 9999 FEW045 BECMG CAVOK
  • 200925Z AUTO 03005KT 010V120 9999 NCD 19/09 Q1023 BLU 05004KT 9999 FEW040
  • 200855Z AUTO 03004KT 330V120 9999 NCD 18/10 Q1023 BLU 08004KT CAVOK

TAF TAF EHEH
Valide du 20 à 06h jusqu'au 21 à 12h UTC


200516Z 2006/2112 VRB02KT 0500 FG BCFG
BECMG 2006/2007 05005KT 1500 BR FEW002
BECMG 2007/2008 9999 NSW NSC
PROB30
TEMPO 2017/2019 18010G25KT 4000 SHRA TSRA SCT050CB BKN080
PROB30 2102/2106 3000 MIFG BR
Pas de NOTAMs connus pour ce terrain.



MET'MAP, la Météo Aéronautique d'un coup d'oeil ! - Copyright ORBIFLY Décembre 2007 - Disclaimer

ORBIFLY MET'MAP TEAM :

Programmation & Développement : Alexandra Zaïnal
Conception & Développement : Baudouin d'Aumeries
Co-Programmation & Développement : Marc-Olivier Méhu
Soutien technique & logistique : Manuel Goepfert

Contact : metmap@orbifly.com




SOURCES & CREDITS :

   NOAA